sensor_id;sensor_type;location;lat;lon;timestamp;pressure;altitude;pressure_sealevel;temperature;humidity
71126;BME280;58785;55.566;38.058;2023-05-08T00:01:10;101762.59;;;2.30;64.38
71126;BME280;58785;55.566;38.058;2023-05-08T00:03:36;101758.31;;;2.27;64.68
71126;BME280;58785;55.566;38.058;2023-05-08T00:06:05;101758.53;;;2.21;64.37
71126;BME280;58785;55.566;38.058;2023-05-08T00:08:31;101751.59;;;2.19;64.48
71126;BME280;58785;55.566;38.058;2023-05-08T00:10:57;101765.53;;;2.22;64.44
71126;BME280;58785;55.566;38.058;2023-05-08T00:13:23;101745.63;;;2.14;64.61
71126;BME280;58785;55.566;38.058;2023-05-08T00:15:49;101757.88;;;2.15;64.62
71126;BME280;58785;55.566;38.058;2023-05-08T00:18:14;101768.34;;;2.16;64.86
71126;BME280;58785;55.566;38.058;2023-05-08T00:20:41;101771.03;;;2.15;64.74
71126;BME280;58785;55.566;38.058;2023-05-08T00:23:07;101766.75;;;2.12;64.78
71126;BME280;58785;55.566;38.058;2023-05-08T00:25:32;101748.72;;;2.00;65.25
71126;BME280;58785;55.566;38.058;2023-05-08T00:27:59;101771.25;;;2.09;65.49
71126;BME280;58785;55.566;38.058;2023-05-08T00:30:25;101775.69;;;2.07;65.44
71126;BME280;58785;55.566;38.058;2023-05-08T00:32:51;101772.16;;;2.08;65.59
71126;BME280;58785;55.566;38.058;2023-05-08T00:35:17;101767.88;;;2.05;65.43
71126;BME280;58785;55.566;38.058;2023-05-08T00:37:43;101778.31;;;2.07;65.23
71126;BME280;58785;55.566;38.058;2023-05-08T00:40:09;101784.56;;;2.04;65.45
71126;BME280;58785;55.566;38.058;2023-05-08T00:42:36;101789.94;;;2.01;65.96
71126;BME280;58785;55.566;38.058;2023-05-08T00:45:02;101770.06;;;1.92;65.63
71126;BME280;58785;55.566;38.058;2023-05-08T00:47:33;101778.69;;;1.96;65.71
71126;BME280;58785;55.566;38.058;2023-05-08T00:49:59;101784.00;;;1.94;65.76
71126;BME280;58785;55.566;38.058;2023-05-08T00:52:27;101788.34;;;1.95;65.83
71126;BME280;58785;55.566;38.058;2023-05-08T00:54:54;101773.75;;;1.87;66.24
71126;BME280;58785;55.566;38.058;2023-05-08T00:57:21;101785.84;;;1.92;65.77
71126;BME280;58785;55.566;38.058;2023-05-08T00:59:48;101780.81;;;1.85;66.33
71126;BME280;58785;55.566;38.058;2023-05-08T01:02:14;101791.28;;;1.86;66.14
71126;BME280;58785;55.566;38.058;2023-05-08T01:04:41;101792.31;;;1.82;66.28
71126;BME280;58785;55.566;38.058;2023-05-08T01:07:09;101793.97;;;1.85;66.23
71126;BME280;58785;55.566;38.058;2023-05-08T01:09:35;101791.28;;;1.86;66.64
71126;BME280;58785;55.566;38.058;2023-05-08T01:15:10;101791.34;;;1.85;66.66
71126;BME280;58785;55.566;38.058;2023-05-08T01:20:56;101807.13;;;1.85;66.21
71126;BME280;58785;55.566;38.058;2023-05-08T01:23:58;101808.91;;;1.84;66.56
71126;BME280;58785;55.566;38.058;2023-05-08T01:32:19;101823.03;;;1.82;66.27
71126;BME280;58785;55.566;38.058;2023-05-08T01:38:05;101818.56;;;1.84;66.45
71126;BME280;58785;55.566;38.058;2023-05-08T01:45:56;101810.63;;;1.85;66.07
71126;BME280;58785;55.566;38.058;2023-05-08T01:48:29;101822.81;;;1.88;66.12
71126;BME280;58785;55.566;38.058;2023-05-08T01:51:00;101816.72;;;1.86;66.36
71126;BME280;58785;55.566;38.058;2023-05-08T01:53:29;101820.09;;;1.91;66.10
71126;BME280;58785;55.566;38.058;2023-05-08T01:55:59;101823.47;;;1.94;66.35
71126;BME280;58785;55.566;38.058;2023-05-08T01:58:29;101821.59;;;1.98;66.28
71126;BME280;58785;55.566;38.058;2023-05-08T02:00:57;101818.03;;;2.00;66.61
71126;BME280;58785;55.566;38.058;2023-05-08T02:03:24;101804.03;;;1.98;66.06
71126;BME280;58785;55.566;38.058;2023-05-08T02:05:51;101805.56;;;2.06;66.10
71126;BME280;58785;55.566;38.058;2023-05-08T02:08:20;101826.03;;;2.22;66.15
71126;BME280;58785;55.566;38.058;2023-05-08T02:10:48;101831.84;;;2.32;65.82
71126;BME280;58785;55.566;38.058;2023-05-08T02:13:15;101824.53;;;2.40;65.72
71126;BME280;58785;55.566;38.058;2023-05-08T02:15:48;101835.56;;;2.51;66.04
71126;BME280;58785;55.566;38.058;2023-05-08T02:18:17;101824.88;;;2.56;65.36
71126;BME280;58785;55.566;38.058;2023-05-08T02:20:45;101840.22;;;2.68;65.81
71126;BME280;58785;55.566;38.058;2023-05-08T02:23:32;101838.91;;;2.80;65.90
71126;BME280;58785;55.566;38.058;2023-05-08T02:26:00;101840.63;;;3.06;65.02
71126;BME280;58785;55.566;38.058;2023-05-08T02:28:27;101841.56;;;3.50;64.44
71126;BME280;58785;55.566;38.058;2023-05-08T02:30:55;101831.81;;;3.96;63.84
71126;BME280;58785;55.566;38.058;2023-05-08T02:33:23;101841.25;;;4.44;63.74
71126;BME280;58785;55.566;38.058;2023-05-08T02:35:50;101840.38;;;4.84;63.48
71126;BME280;58785;55.566;38.058;2023-05-08T02:38:18;101835.34;;;5.17;62.95
71126;BME280;58785;55.566;38.058;2023-05-08T02:40:47;101836.47;;;5.49;62.63
71126;BME280;58785;55.566;38.058;2023-05-08T02:43:14;101842.16;;;5.77;62.47
71126;BME280;58785;55.566;38.058;2023-05-08T02:48:23;101848.03;;;6.38;62.08
71126;BME280;58785;55.566;38.058;2023-05-08T02:53:38;101844.47;;;6.89;60.86
71126;BME280;58785;55.566;38.058;2023-05-08T02:56:17;101858.75;;;7.19;60.46
71126;BME280;58785;55.566;38.058;2023-05-08T02:58:56;101858.88;;;7.49;60.18
71126;BME280;58785;55.566;38.058;2023-05-08T03:01:27;101859.25;;;7.75;60.31
71126;BME280;58785;55.566;38.058;2023-05-08T03:04:01;101850.56;;;8.03;59.69
71126;BME280;58785;55.566;38.058;2023-05-08T03:06:34;101855.91;;;8.33;58.76
71126;BME280;58785;55.566;38.058;2023-05-08T03:09:01;101859.44;;;8.63;58.27
71126;BME280;58785;55.566;38.058;2023-05-08T03:11:36;101855.47;;;8.85;57.56
71126;BME280;58785;55.566;38.058;2023-05-08T03:14:05;101874.69;;;9.04;56.98
71126;BME280;58785;55.566;38.058;2023-05-08T03:16:37;101862.22;;;9.19;56.58
71126;BME280;58785;55.566;38.058;2023-05-08T03:19:18;101867.06;;;9.41;55.83
71126;BME280;58785;55.566;38.058;2023-05-08T03:21:48;101872.81;;;9.62;55.36
71126;BME280;58785;55.566;38.058;2023-05-08T03:24:16;101871.84;;;9.77;54.81
71126;BME280;58785;55.566;38.058;2023-05-08T03:26:44;101885.19;;;10.04;54.20
71126;BME280;58785;55.566;38.058;2023-05-08T03:29:12;101877.81;;;10.22;54.02
71126;BME280;58785;55.566;38.058;2023-05-08T03:31:40;101876.81;;;10.37;53.27
71126;BME280;58785;55.566;38.058;2023-05-08T03:34:07;101871.94;;;10.56;52.94
71126;BME280;58785;55.566;38.058;2023-05-08T03:36:34;101889.16;;;10.78;52.51
71126;BME280;58785;55.566;38.058;2023-05-08T03:39:01;101892.16;;;10.86;52.40
71126;BME280;58785;55.566;38.058;2023-05-08T03:41:27;101892.88;;;10.88;51.84
71126;BME280;58785;55.566;38.058;2023-05-08T03:43:54;101883.59;;;10.81;51.97
71126;BME280;58785;55.566;38.058;2023-05-08T03:46:20;101893.66;;;11.03;51.47
71126;BME280;58785;55.566;38.058;2023-05-08T03:48:48;101894.16;;;11.20;50.69
71126;BME280;58785;55.566;38.058;2023-05-08T03:51:14;101897.59;;;11.35;50.93
71126;BME280;58785;55.566;38.058;2023-05-08T03:53:40;101889.03;;;11.30;50.35
71126;BME280;58785;55.566;38.058;2023-05-08T03:56:06;101890.13;;;11.28;50.38
71126;BME280;58785;55.566;38.058;2023-05-08T04:01:54;101907.44;;;11.35;48.94
71126;BME280;58785;55.566;38.058;2023-05-08T04:04:43;101905.81;;;11.32;49.01
71126;BME280;58785;55.566;38.058;2023-05-08T04:07:55;101915.75;;;11.43;48.97
71126;BME280;58785;55.566;38.058;2023-05-08T04:10:11;101917.31;;;11.58;48.53
71126;BME280;58785;55.566;38.058;2023-05-08T04:13:01;101928.56;;;11.63;47.75
71126;BME280;58785;55.566;38.058;2023-05-08T04:15:30;101918.16;;;11.59;48.33
71126;BME280;58785;55.566;38.058;2023-05-08T04:18:13;101910.81;;;11.49;47.39
71126;BME280;58785;55.566;38.058;2023-05-08T04:20:41;101906.69;;;11.33;48.50
71126;BME280;58785;55.566;38.058;2023-05-08T04:23:14;101912.88;;;11.33;48.44
71126;BME280;58785;55.566;38.058;2023-05-08T04:25:41;101912.22;;;11.42;48.65
71126;BME280;58785;55.566;38.058;2023-05-08T04:28:09;101904.94;;;11.57;48.59
71126;BME280;58785;55.566;38.058;2023-05-08T04:30:36;101912.47;;;11.76;47.98
71126;BME280;58785;55.566;38.058;2023-05-08T04:33:04;101907.75;;;11.92;47.66
71126;BME280;58785;55.566;38.058;2023-05-08T04:35:31;101911.31;;;12.17;47.73
71126;BME280;58785;55.566;38.058;2023-05-08T04:37:58;101903.09;;;12.31;46.77
71126;BME280;58785;55.566;38.058;2023-05-08T04:40:24;101900.47;;;12.42;46.97
71126;BME280;58785;55.566;38.058;2023-05-08T04:42:50;101896.72;;;12.45;47.06
71126;BME280;58785;55.566;38.058;2023-05-08T04:45:16;101901.97;;;12.46;46.73
71126;BME280;58785;55.566;38.058;2023-05-08T04:47:44;101898.88;;;12.40;46.77
71126;BME280;58785;55.566;38.058;2023-05-08T04:50:10;101904.50;;;12.48;46.89
71126;BME280;58785;55.566;38.058;2023-05-08T04:52:36;101895.47;;;12.37;45.76
71126;BME280;58785;55.566;38.058;2023-05-08T04:55:02;101899.78;;;12.51;46.30
71126;BME280;58785;55.566;38.058;2023-05-08T04:57:29;101903.03;;;12.79;45.97
71126;BME280;58785;55.566;38.058;2023-05-08T04:59:55;101902.31;;;12.77;45.62
71126;BME280;58785;55.566;38.058;2023-05-08T05:02:20;101901.44;;;12.76;45.21
71126;BME280;58785;55.566;38.058;2023-05-08T05:04:46;101897.69;;;12.79;45.01
71126;BME280;58785;55.566;38.058;2023-05-08T05:07:12;101905.13;;;12.86;44.65
71126;BME280;58785;55.566;38.058;2023-05-08T05:09:37;101902.59;;;12.96;44.10
71126;BME280;58785;55.566;38.058;2023-05-08T05:12:04;101904.28;;;12.86;43.96
71126;BME280;58785;55.566;38.058;2023-05-08T05:14:30;101912.19;;;12.99;44.09
71126;BME280;58785;55.566;38.058;2023-05-08T05:16:56;101913.06;;;13.10;43.77
71126;BME280;58785;55.566;38.058;2023-05-08T05:19:22;101902.19;;;13.25;43.57
71126;BME280;58785;55.566;38.058;2023-05-08T05:21:48;101915.94;;;13.31;43.03
71126;BME280;58785;55.566;38.058;2023-05-08T05:24:13;101916.44;;;13.47;42.49
71126;BME280;58785;55.566;38.058;2023-05-08T05:26:39;101919.34;;;13.67;42.60
71126;BME280;58785;55.566;38.058;2023-05-08T05:29:05;101914.97;;;13.55;42.13
71126;BME280;58785;55.566;38.058;2023-05-08T05:31:31;101920.47;;;13.53;42.07
71126;BME280;58785;55.566;38.058;2023-05-08T05:33:57;101912.88;;;13.69;41.81
71126;BME280;58785;55.566;38.058;2023-05-08T05:36:23;101913.47;;;13.95;41.38
71126;BME280;58785;55.566;38.058;2023-05-08T05:38:49;101925.03;;;13.96;41.30
71126;BME280;58785;55.566;38.058;2023-05-08T05:41:15;101915.16;;;13.96;41.58
71126;BME280;58785;55.566;38.058;2023-05-08T05:43:40;101910.50;;;14.09;40.62
71126;BME280;58785;55.566;38.058;2023-05-08T05:46:07;101915.72;;;14.11;40.77
71126;BME280;58785;55.566;38.058;2023-05-08T05:48:33;101922.91;;;14.10;40.29
71126;BME280;58785;55.566;38.058;2023-05-08T05:50:59;101915.81;;;13.77;40.37
71126;BME280;58785;55.566;38.058;2023-05-08T05:53:25;101914.09;;;13.76;40.76
71126;BME280;58785;55.566;38.058;2023-05-08T05:55:51;101914.56;;;13.81;40.31
71126;BME280;58785;55.566;38.058;2023-05-08T05:58:17;101923.81;;;14.00;40.17
71126;BME280;58785;55.566;38.058;2023-05-08T06:00:43;101920.34;;;14.20;39.78
71126;BME280;58785;55.566;38.058;2023-05-08T06:03:09;101923.44;;;14.48;39.92
71126;BME280;58785;55.566;38.058;2023-05-08T06:05:38;101913.78;;;14.56;39.62
71126;BME280;58785;55.566;38.058;2023-05-08T06:08:05;101909.34;;;14.66;39.41
71126;BME280;58785;55.566;38.058;2023-05-08T06:10:31;101924.47;;;14.68;39.28
71126;BME280;58785;55.566;38.058;2023-05-08T06:12:56;101922.09;;;14.53;39.46
71126;BME280;58785;55.566;38.058;2023-05-08T06:15:22;101924.25;;;14.59;39.37
71126;BME280;58785;55.566;38.058;2023-05-08T06:17:48;101922.84;;;14.76;38.62
71126;BME280;58785;55.566;38.058;2023-05-08T06:20:13;101919.16;;;14.77;38.54
71126;BME280;58785;55.566;38.058;2023-05-08T06:22:39;101924.94;;;14.93;38.48
71126;BME280;58785;55.566;38.058;2023-05-08T06:25:06;101926.28;;;15.09;37.98
71126;BME280;58785;55.566;38.058;2023-05-08T06:27:33;101916.69;;;15.06;37.79
71126;BME280;58785;55.566;38.058;2023-05-08T06:30:03;101924.66;;;15.17;37.80
71126;BME280;58785;55.566;38.058;2023-05-08T06:32:30;101917.94;;;15.33;37.39
71126;BME280;58785;55.566;38.058;2023-05-08T06:34:55;101926.16;;;15.62;37.58
71126;BME280;58785;55.566;38.058;2023-05-08T06:37:21;101916.97;;;16.04;37.55
71126;BME280;58785;55.566;38.058;2023-05-08T06:39:47;101903.38;;;16.25;37.32
71126;BME280;58785;55.566;38.058;2023-05-08T06:42:12;101907.78;;;16.36;36.79
71126;BME280;58785;55.566;38.058;2023-05-08T06:44:38;101902.94;;;16.20;36.68
71126;BME280;58785;55.566;38.058;2023-05-08T06:47:05;101913.88;;;15.69;36.25
71126;BME280;58785;55.566;38.058;2023-05-08T06:49:31;101911.88;;;14.89;37.67
71126;BME280;58785;55.566;38.058;2023-05-08T06:51:57;101912.75;;;13.93;38.27
71126;BME280;58785;55.566;38.058;2023-05-08T06:54:22;101919.97;;;13.37;38.88
71126;BME280;58785;55.566;38.058;2023-05-08T06:56:48;101904.25;;;13.66;38.72
71126;BME280;58785;55.566;38.058;2023-05-08T06:59:14;101907.34;;;14.04;37.94
71126;BME280;58785;55.566;38.058;2023-05-08T07:01:39;101912.31;;;14.09;37.41
71126;BME280;58785;55.566;38.058;2023-05-08T07:04:05;101905.72;;;13.47;37.75
71126;BME280;58785;55.566;38.058;2023-05-08T07:06:31;101908.53;;;12.88;38.51
71126;BME280;58785;55.566;38.058;2023-05-08T07:08:57;101904.78;;;12.56;38.94
71126;BME280;58785;55.566;38.058;2023-05-08T07:11:23;101902.03;;;12.33;39.29
71126;BME280;58785;55.566;38.058;2023-05-08T07:13:48;101899.28;;;12.22;39.10
71126;BME280;58785;55.566;38.058;2023-05-08T07:16:15;101908.34;;;12.08;39.26
71126;BME280;58785;55.566;38.058;2023-05-08T07:18:41;101909.47;;;11.93;39.47
71126;BME280;58785;55.566;38.058;2023-05-08T07:21:08;101911.13;;;11.83;39.42
71126;BME280;58785;55.566;38.058;2023-05-08T07:23:33;101902.97;;;11.72;39.74
71126;BME280;58785;55.566;38.058;2023-05-08T07:25:59;101885.81;;;12.24;39.27
71126;BME280;58785;55.566;38.058;2023-05-08T07:28:25;101899.00;;;12.38;38.60
71126;BME280;58785;55.566;38.058;2023-05-08T07:30:51;101897.53;;;12.34;38.62
71126;BME280;58785;55.566;38.058;2023-05-08T07:33:17;101889.63;;;12.68;38.02
71126;BME280;58785;55.566;38.058;2023-05-08T07:35:43;101892.19;;;13.27;37.58
71126;BME280;58785;55.566;38.058;2023-05-08T07:38:09;101873.34;;;13.82;37.18
71126;BME280;58785;55.566;38.058;2023-05-08T07:40:35;101889.44;;;14.37;36.87
71126;BME280;58785;55.566;38.058;2023-05-08T07:43:01;101889.00;;;14.53;36.48
71126;BME280;58785;55.566;38.058;2023-05-08T07:45:26;101891.13;;;14.38;36.24
71126;BME280;58785;55.566;38.058;2023-05-08T07:47:54;101884.59;;;14.20;36.66
71126;BME280;58785;55.566;38.058;2023-05-08T07:50:20;101881.66;;;14.23;36.47
71126;BME280;58785;55.566;38.058;2023-05-08T07:52:46;101877.72;;;14.38;36.24
71126;BME280;58785;55.566;38.058;2023-05-08T07:55:12;101878.81;;;14.35;36.13
71126;BME280;58785;55.566;38.058;2023-05-08T07:57:39;101888.56;;;14.36;36.00
71126;BME280;58785;55.566;38.058;2023-05-08T08:00:07;101886.34;;;14.09;36.24
71126;BME280;58785;55.566;38.058;2023-05-08T08:02:33;101882.69;;;14.10;35.95
71126;BME280;58785;55.566;38.058;2023-05-08T08:04:59;101881.50;;;14.35;35.51
71126;BME280;58785;55.566;38.058;2023-05-08T08:07:25;101880.25;;;14.39;34.80
71126;BME280;58785;55.566;38.058;2023-05-08T08:09:50;101875.72;;;14.51;34.82
71126;BME280;58785;55.566;38.058;2023-05-08T08:12:16;101868.00;;;14.79;35.02
71126;BME280;58785;55.566;38.058;2023-05-08T08:14:41;101872.72;;;14.86;34.45
71126;BME280;58785;55.566;38.058;2023-05-08T08:17:07;101873.81;;;14.63;34.84
71126;BME280;58785;55.566;38.058;2023-05-08T08:19:33;101873.56;;;14.66;34.71
71126;BME280;58785;55.566;38.058;2023-05-08T08:21:58;101883.13;;;14.27;34.96
71126;BME280;58785;55.566;38.058;2023-05-08T08:24:25;101878.53;;;13.74;35.65
71126;BME280;58785;55.566;38.058;2023-05-08T08:26:50;101876.47;;;13.22;36.24
71126;BME280;58785;55.566;38.058;2023-05-08T08:29:16;101877.03;;;13.03;36.97
71126;BME280;58785;55.566;38.058;2023-05-08T08:31:43;101878.97;;;12.90;37.09
71126;BME280;58785;55.566;38.058;2023-05-08T08:34:09;101875.84;;;12.61;37.36
71126;BME280;58785;55.566;38.058;2023-05-08T08:36:34;101860.31;;;12.42;37.27
71126;BME280;58785;55.566;38.058;2023-05-08T08:39:00;101869.56;;;12.38;37.16
71126;BME280;58785;55.566;38.058;2023-05-08T08:41:26;101869.13;;;12.44;37.66
71126;BME280;58785;55.566;38.058;2023-05-08T08:43:53;101868.66;;;12.61;36.91
71126;BME280;58785;55.566;38.058;2023-05-08T08:46:23;101853.31;;;13.21;36.55
71126;BME280;58785;55.566;38.058;2023-05-08T08:48:54;101854.34;;;13.86;35.98
71126;BME280;58785;55.566;38.058;2023-05-08T08:51:27;101850.56;;;14.20;35.59
71126;BME280;58785;55.566;38.058;2023-05-08T08:54:08;101854.31;;;13.97;35.34
71126;BME280;58785;55.566;38.058;2023-05-08T08:56:39;101850.38;;;13.69;35.97
71126;BME280;58785;55.566;38.058;2023-05-08T08:59:08;101862.69;;;13.49;35.93
71126;BME280;58785;55.566;38.058;2023-05-08T09:01:38;101867.81;;;13.30;35.87
71126;BME280;58785;55.566;38.058;2023-05-08T09:04:04;101864.66;;;13.25;36.68
71126;BME280;58785;55.566;38.058;2023-05-08T09:06:36;101859.75;;;12.96;36.73
71126;BME280;58785;55.566;38.058;2023-05-08T09:09:03;101864.47;;;12.92;36.67
71126;BME280;58785;55.566;38.058;2023-05-08T09:11:29;101855.59;;;12.92;36.56
71126;BME280;58785;55.566;38.058;2023-05-08T09:13:55;101845.72;;;12.81;36.98
71126;BME280;58785;55.566;38.058;2023-05-08T09:16:22;101863.25;;;12.85;36.78
71126;BME280;58785;55.566;38.058;2023-05-08T09:18:47;101859.94;;;12.82;36.58
71126;BME280;58785;55.566;38.058;2023-05-08T09:21:13;101869.94;;;12.80;36.51
71126;BME280;58785;55.566;38.058;2023-05-08T09:24:02;101865.44;;;12.80;36.51
71126;BME280;58785;55.566;38.058;2023-05-08T09:26:36;101866.41;;;12.90;36.51
71126;BME280;58785;55.566;38.058;2023-05-08T09:31:46;101844.53;;;12.85;36.87
71126;BME280;58785;55.566;38.058;2023-05-08T09:34:26;101844.03;;;12.91;36.84
71126;BME280;58785;55.566;38.058;2023-05-08T09:36:54;101842.56;;;12.99;36.80
71126;BME280;58785;55.566;38.058;2023-05-08T09:39:22;101852.31;;;13.11;36.82
71126;BME280;58785;55.566;38.058;2023-05-08T09:42:02;101859.63;;;12.98;37.05
71126;BME280;58785;55.566;38.058;2023-05-08T09:44:51;101851.69;;;12.74;36.41
71126;BME280;58785;55.566;38.058;2023-05-08T09:47:21;101844.28;;;12.42;36.72
71126;BME280;58785;55.566;38.058;2023-05-08T09:52:33;101839.59;;;12.57;37.25
71126;BME280;58785;55.566;38.058;2023-05-08T09:57:37;101839.63;;;12.79;36.43
71126;BME280;58785;55.566;38.058;2023-05-08T10:00:06;101837.09;;;12.89;35.83
71126;BME280;58785;55.566;38.058;2023-05-08T10:02:35;101824.81;;;12.98;35.81
71126;BME280;58785;55.566;38.058;2023-05-08T10:05:01;101837.84;;;13.13;35.83
71126;BME280;58785;55.566;38.058;2023-05-08T10:07:30;101822.91;;;13.33;35.80
71126;BME280;58785;55.566;38.058;2023-05-08T10:09:58;101832.63;;;13.45;35.64
71126;BME280;58785;55.566;38.058;2023-05-08T10:12:25;101828.25;;;13.44;35.63
71126;BME280;58785;55.566;38.058;2023-05-08T10:14:51;101840.31;;;13.28;35.65
71126;BME280;58785;55.566;38.058;2023-05-08T10:17:22;101837.09;;;13.00;36.09
71126;BME280;58785;55.566;38.058;2023-05-08T10:19:51;101833.78;;;12.74;36.27
71126;BME280;58785;55.566;38.058;2023-05-08T10:22:21;101828.91;;;12.68;36.89
71126;BME280;58785;55.566;38.058;2023-05-08T10:24:48;101831.47;;;12.70;36.78
71126;BME280;58785;55.566;38.058;2023-05-08T10:27:19;101836.59;;;12.73;36.52
71126;BME280;58785;55.566;38.058;2023-05-08T10:29:53;101839.59;;;12.57;36.25
71126;BME280;58785;55.566;38.058;2023-05-08T10:32:22;101836.78;;;12.58;36.61
71126;BME280;58785;55.566;38.058;2023-05-08T10:35:08;101840.28;;;12.48;37.19
71126;BME280;58785;55.566;38.058;2023-05-08T10:37:35;101825.59;;;12.53;36.51
71126;BME280;58785;55.566;38.058;2023-05-08T10:40:02;101835.38;;;12.77;37.21
71126;BME280;58785;55.566;38.058;2023-05-08T10:42:30;101836.50;;;12.85;36.88
71126;BME280;58785;55.566;38.058;2023-05-08T10:44:56;101830.88;;;13.00;36.93
71126;BME280;58785;55.566;38.058;2023-05-08T10:57:30;101813.38;;;13.18;36.62
71126;BME280;58785;55.566;38.058;2023-05-08T10:59:56;101824.09;;;13.18;36.64
71126;BME280;58785;55.566;38.058;2023-05-08T11:02:26;101817.63;;;13.09;36.90
71126;BME280;58785;55.566;38.058;2023-05-08T11:05:14;101818.34;;;12.89;36.85
71126;BME280;58785;55.566;38.058;2023-05-08T11:07:58;101809.72;;;12.85;36.87
71126;BME280;58785;55.566;38.058;2023-05-08T11:10:30;101816.41;;;12.91;36.90
71126;BME280;58785;55.566;38.058;2023-05-08T11:12:58;101813.72;;;13.02;37.18
71126;BME280;58785;55.566;38.058;2023-05-08T11:15:40;101811.91;;;13.14;37.28
71126;BME280;58785;55.566;38.058;2023-05-08T11:18:09;101805.34;;;13.18;36.75
71126;BME280;58785;55.566;38.058;2023-05-08T11:20:55;101820.47;;;13.19;37.20
71126;BME280;58785;55.566;38.058;2023-05-08T11:23:28;101812.13;;;13.11;36.77
71126;BME280;58785;55.566;38.058;2023-05-08T11:28:31;101804.59;;;12.82;36.03
71126;BME280;58785;55.566;38.058;2023-05-08T11:31:07;101817.75;;;12.74;35.76
71126;BME280;58785;55.566;38.058;2023-05-08T11:33:34;101801.03;;;12.71;36.07
71126;BME280;58785;55.566;38.058;2023-05-08T11:36:15;101807.88;;;12.86;35.93
71126;BME280;58785;55.566;38.058;2023-05-08T11:38:42;101802.53;;;12.97;35.74
71126;BME280;58785;55.566;38.058;2023-05-08T11:41:21;101799.72;;;12.99;34.78
71126;BME280;58785;55.566;38.058;2023-05-08T11:44:07;101807.88;;;12.97;34.97
71126;BME280;58785;55.566;38.058;2023-05-08T11:46:39;101801.94;;;13.05;35.28
71126;BME280;58785;55.566;38.058;2023-05-08T11:49:10;101804.63;;;13.27;34.66
71126;BME280;58785;55.566;38.058;2023-05-08T11:51:36;101795.34;;;13.42;35.03
71126;BME280;58785;55.566;38.058;2023-05-08T11:54:03;101794.50;;;13.53;34.94
71126;BME280;58785;55.566;38.058;2023-05-08T11:56:30;101798.84;;;13.65;35.35
71126;BME280;58785;55.566;38.058;2023-05-08T11:59:06;101793.72;;;13.62;35.17
71126;BME280;58785;55.566;38.058;2023-05-08T12:01:36;101787.41;;;13.52;34.97
71126;BME280;58785;55.566;38.058;2023-05-08T12:04:06;101801.69;;;13.30;35.80
71126;BME280;58785;55.566;38.058;2023-05-08T12:06:36;101800.84;;;13.07;35.95
71126;BME280;58785;55.566;38.058;2023-05-08T12:09:13;101795.84;;;13.03;36.40
71126;BME280;58785;55.566;38.058;2023-05-08T12:11:41;101812.16;;;13.00;36.87
71126;BME280;58785;55.566;38.058;2023-05-08T12:14:09;101794.75;;;13.05;36.39
71126;BME280;58785;55.566;38.058;2023-05-08T12:16:36;101803.88;;;13.03;36.65
71126;BME280;58785;55.566;38.058;2023-05-08T12:19:03;101812.53;;;12.95;36.82
71126;BME280;58785;55.566;38.058;2023-05-08T12:21:33;101793.78;;;12.84;36.87
71126;BME280;58785;55.566;38.058;2023-05-08T12:23:59;101798.63;;;12.90;36.37
71126;BME280;58785;55.566;38.058;2023-05-08T12:26:25;101797.44;;;12.83;36.26
71126;BME280;58785;55.566;38.058;2023-05-08T12:28:55;101797.44;;;12.83;36.21
71126;BME280;58785;55.566;38.058;2023-05-08T12:31:22;101795.09;;;12.78;36.19
71126;BME280;58785;55.566;38.058;2023-05-08T12:33:50;101799.97;;;12.84;36.53
71126;BME280;58785;55.566;38.058;2023-05-08T12:36:16;101784.41;;;12.89;36.71
71126;BME280;58785;55.566;38.058;2023-05-08T12:38:42;101788.44;;;12.95;36.41
71126;BME280;58785;55.566;38.058;2023-05-08T12:41:08;101784.50;;;12.99;36.10
71126;BME280;58785;55.566;38.058;2023-05-08T12:43:36;101774.66;;;12.88;36.38
71126;BME280;58785;55.566;38.058;2023-05-08T12:46:03;101772.09;;;12.98;35.96
71126;BME280;58785;55.566;38.058;2023-05-08T12:48:30;101773.09;;;13.19;36.18
71126;BME280;58785;55.566;38.058;2023-05-08T12:51:03;101779.66;;;13.38;35.71
71126;BME280;58785;55.566;38.058;2023-05-08T12:53:31;101767.59;;;13.32;35.68
71126;BME280;58785;55.566;38.058;2023-05-08T12:56:01;101771.75;;;13.36;35.65
71126;BME280;58785;55.566;38.058;2023-05-08T12:58:33;101760.88;;;13.38;35.94
71126;BME280;58785;55.566;38.058;2023-05-08T13:01:11;101772.28;;;13.51;35.95
71126;BME280;58785;55.566;38.058;2023-05-08T13:03:41;101760.72;;;13.50;36.11
71126;BME280;58785;55.566;38.058;2023-05-08T13:06:18;101767.91;;;13.50;35.88
71126;BME280;58785;55.566;38.058;2023-05-08T13:08:45;101766.50;;;13.35;36.23
71126;BME280;58785;55.566;38.058;2023-05-08T13:11:27;101760.19;;;13.13;36.40
71126;BME280;58785;55.566;38.058;2023-05-08T13:13:55;101767.22;;;12.92;36.07
71126;BME280;58785;55.566;38.058;2023-05-08T13:16:21;101770.16;;;12.66;36.10
71126;BME280;58785;55.566;38.058;2023-05-08T13:18:46;101772.56;;;12.58;36.41
71126;BME280;58785;55.566;38.058;2023-05-08T13:21:12;101760.28;;;12.45;36.83
71126;BME280;58785;55.566;38.058;2023-05-08T13:23:38;101761.00;;;12.47;37.04
71126;BME280;58785;55.566;38.058;2023-05-08T13:26:04;101760.88;;;12.48;36.43
71126;BME280;58785;55.566;38.058;2023-05-08T13:28:30;101764.66;;;12.57;36.66
71126;BME280;58785;55.566;38.058;2023-05-08T13:30:55;101768.31;;;12.67;36.29
71126;BME280;58785;55.566;38.058;2023-05-08T13:33:21;101761.63;;;12.61;36.38
71126;BME280;58785;55.566;38.058;2023-05-08T13:35:47;101757.50;;;12.69;36.49
71126;BME280;58785;55.566;38.058;2023-05-08T13:38:13;101766.03;;;12.74;36.15
71126;BME280;58785;55.566;38.058;2023-05-08T13:40:39;101760.44;;;12.77;36.05